createdAt,value
2023-02-21T00:01:00.509Z,2.85
2023-02-21T00:03:46.119Z,2.72
2023-02-21T00:06:32.113Z,3.17
2023-02-21T00:09:17.989Z,2.67
2023-02-21T00:12:03.597Z,3.15
2023-02-21T00:14:49.541Z,2.60
2023-02-21T00:17:35.167Z,2.80
2023-02-21T00:20:21.125Z,3.30
2023-02-21T00:23:07.157Z,3.33
2023-02-21T00:25:53.047Z,2.97
2023-02-21T00:28:38.955Z,2.85
2023-02-21T00:31:24.875Z,2.60
2023-02-21T00:34:10.769Z,3.42
2023-02-21T00:36:56.630Z,3.17
2023-02-21T00:39:42.686Z,2.95
2023-02-21T00:42:28.680Z,3.00
2023-02-21T00:45:14.640Z,3.53
2023-02-21T00:48:00.662Z,2.72
2023-02-21T00:50:46.667Z,3.50
2023-02-21T00:53:32.510Z,2.80
2023-02-21T00:56:18.424Z,3.53
2023-02-21T00:59:04.201Z,3.20
2023-02-21T01:01:50.208Z,3.28
2023-02-21T01:04:36.018Z,3.10
2023-02-21T01:07:21.857Z,2.53
2023-02-21T01:10:07.875Z,3.17
2023-02-21T01:12:53.712Z,2.65
2023-02-21T01:15:39.602Z,4.13
2023-02-21T01:18:25.608Z,3.03
2023-02-21T01:21:11.418Z,3.10
2023-02-21T01:23:57.149Z,3.60
2023-02-21T01:26:43.298Z,3.08
2023-02-21T01:29:29.048Z,3.28
2023-02-21T01:32:15.127Z,2.80
2023-02-21T01:35:01.025Z,4.10
2023-02-21T01:37:46.952Z,3.13
2023-02-21T01:40:35.984Z,3.38
2023-02-21T01:43:21.923Z,3.55
2023-02-21T01:46:10.997Z,3.90
2023-02-21T01:48:56.967Z,3.50
2023-02-21T01:51:44.943Z,3.50
2023-02-21T01:54:30.947Z,3.65
2023-02-21T01:57:18.470Z,4.00
2023-02-21T02:00:04.616Z,3.70
2023-02-21T02:02:57.232Z,3.30
2023-02-21T02:05:43.162Z,3.47
2023-02-21T02:08:28.890Z,3.92
2023-02-21T02:11:23.851Z,3.35
2023-02-21T02:14:01.128Z,3.60
2023-02-21T02:16:28.117Z,3.60
2023-02-21T02:19:06.457Z,3.60
2023-02-21T02:21:43.182Z,3.80
2023-02-21T02:24:13.996Z,4.00
2023-02-21T02:26:41.016Z,4.05
2023-02-21T02:29:26.436Z,3.28
2023-02-21T02:32:05.646Z,3.60
2023-02-21T02:34:40.695Z,3.53
2023-02-21T02:37:19.689Z,3.88
2023-02-21T02:39:48.897Z,3.45
2023-02-21T02:42:20.241Z,3.45
2023-02-21T02:44:52.768Z,3.65
2023-02-21T02:47:29.142Z,3.22
2023-02-21T02:49:56.350Z,3.40
2023-02-21T02:52:23.366Z,3.60
2023-02-21T02:55:04.085Z,3.78
2023-02-21T02:57:40.865Z,3.55
2023-02-21T03:00:10.618Z,3.63
2023-02-21T03:03:01.826Z,3.88
2023-02-21T03:05:49.316Z,3.42
2023-02-21T03:08:19.452Z,3.22
2023-02-21T03:10:54.351Z,3.88
2023-02-21T03:13:24.196Z,3.95
2023-02-21T03:15:53.740Z,3.20
2023-02-21T03:18:33.740Z,3.70
2023-02-21T03:21:02.123Z,3.22
2023-02-21T03:23:31.617Z,3.63
2023-02-21T03:26:00.123Z,3.42
2023-02-21T03:28:27.516Z,3.25
2023-02-21T03:30:56.093Z,3.80
2023-02-21T03:33:23.635Z,3.47
2023-02-21T03:35:50.968Z,3.55
2023-02-21T03:38:17.972Z,3.10
2023-02-21T03:40:45.074Z,3.55
2023-02-21T03:43:12.137Z,3.60
2023-02-21T03:45:39.245Z,3.75
2023-02-21T03:48:06.768Z,3.70
2023-02-21T03:50:33.764Z,4.00
2023-02-21T03:53:00.916Z,4.40
2023-02-21T03:55:27.959Z,3.63
2023-02-21T03:57:54.959Z,4.40
2023-02-21T04:00:22.069Z,4.18
2023-02-21T04:02:49.108Z,3.63
2023-02-21T04:05:16.404Z,4.03
2023-02-21T04:07:43.488Z,3.40
2023-02-21T04:10:10.519Z,3.60
2023-02-21T04:12:37.587Z,3.55
2023-02-21T04:15:04.664Z,3.25
2023-02-21T04:17:31.731Z,3.83
2023-02-21T04:19:58.822Z,3.85
2023-02-21T04:22:25.892Z,3.45
2023-02-21T04:24:53.013Z,3.60
2023-02-21T04:27:20.039Z,3.60
2023-02-21T04:29:47.150Z,3.40
2023-02-21T04:32:14.228Z,3.80
2023-02-21T04:34:41.439Z,3.47
2023-02-21T04:37:08.554Z,3.55
2023-02-21T04:39:35.606Z,3.65
2023-02-21T04:42:02.639Z,3.20
2023-02-21T04:44:29.661Z,3.58
2023-02-21T04:46:56.679Z,3.90
2023-02-21T04:49:27.341Z,3.72
2023-02-21T04:51:54.769Z,4.03
2023-02-21T04:54:21.845Z,3.80
2023-02-21T04:56:48.962Z,3.75
2023-02-21T04:59:16.127Z,3.53
2023-02-21T05:01:43.134Z,4.07
2023-02-21T05:04:10.299Z,3.80
2023-02-21T05:06:37.402Z,4.00
2023-02-21T05:09:04.915Z,3.80
2023-02-21T05:11:34.518Z,3.90
2023-02-21T05:14:01.644Z,3.45
2023-02-21T05:16:28.797Z,4.22
2023-02-21T05:18:56.287Z,4.13
2023-02-21T05:21:23.348Z,4.47
2023-02-21T05:23:56.363Z,4.00
2023-02-21T05:26:27.723Z,4.00
2023-02-21T05:28:55.208Z,3.63
2023-02-21T05:31:22.245Z,3.95
2023-02-21T05:33:49.309Z,4.18
2023-02-21T05:36:17.792Z,3.60
2023-02-21T05:38:46.232Z,3.67
2023-02-21T05:41:13.629Z,3.60
2023-02-21T05:43:40.857Z,3.90
2023-02-21T05:46:07.995Z,4.05
2023-02-21T05:48:35.042Z,3.30
2023-02-21T05:51:02.049Z,4.10
2023-02-21T05:53:29.081Z,3.92
2023-02-21T05:55:56.134Z,3.80
2023-02-21T05:58:23.178Z,3.70
2023-02-21T06:00:52.495Z,4.03
2023-02-21T06:03:19.544Z,4.00
2023-02-21T06:05:46.656Z,3.58
2023-02-21T06:08:14.020Z,3.97
2023-02-21T06:10:41.097Z,4.45
2023-02-21T06:13:08.198Z,3.80
2023-02-21T06:15:35.287Z,4.13
2023-02-21T06:18:02.336Z,4.07
2023-02-21T06:20:29.481Z,3.83
2023-02-21T06:22:56.624Z,3.08
2023-02-21T06:25:24.128Z,3.75
2023-02-21T06:27:51.367Z,4.47
2023-02-21T06:30:18.457Z,4.25
2023-02-21T06:32:45.516Z,4.25
2023-02-21T06:35:12.996Z,4.13
2023-02-21T06:37:40.024Z,4.45
2023-02-21T06:40:07.312Z,4.07
2023-02-21T06:42:34.394Z,4.03
2023-02-21T06:45:01.429Z,3.80
2023-02-21T06:47:28.438Z,3.78
2023-02-21T06:49:55.515Z,4.82
2023-02-21T06:52:22.591Z,3.13
2023-02-21T06:54:53.090Z,3.67
2023-02-21T06:57:20.207Z,3.40
2023-02-21T06:59:47.256Z,3.58
2023-02-21T07:02:19.309Z,4.05
2023-02-21T07:04:47.033Z,3.55
2023-02-21T07:07:14.594Z,3.53
2023-02-21T07:09:41.891Z,4.07
2023-02-21T07:12:08.934Z,3.80
2023-02-21T07:14:36.089Z,3.33
2023-02-21T07:17:03.169Z,4.38
2023-02-21T07:19:30.244Z,3.50
2023-02-21T07:21:57.282Z,4.32
2023-02-21T07:24:24.328Z,3.80
2023-02-21T07:26:51.379Z,3.65
2023-02-21T07:29:18.576Z,3.42
2023-02-21T07:31:45.773Z,3.60
2023-02-21T07:34:12.824Z,3.60
2023-02-21T07:36:40.414Z,4.75
2023-02-21T07:39:07.554Z,5.00
2023-02-21T07:41:34.568Z,3.53
2023-02-21T07:44:01.661Z,4.35
2023-02-21T07:46:29.101Z,4.05
2023-02-21T07:48:56.746Z,3.42
2023-02-21T07:51:23.940Z,3.55
2023-02-21T07:53:50.978Z,4.03
2023-02-21T07:56:17.996Z,3.72
2023-02-21T07:58:44.984Z,3.80
2023-02-21T08:01:12.054Z,3.65
2023-02-21T08:03:40.808Z,4.05
2023-02-21T08:06:09.219Z,4.10
2023-02-21T08:08:36.297Z,3.70
2023-02-21T08:11:03.330Z,3.47
2023-02-21T08:13:30.339Z,3.42
2023-02-21T08:15:57.494Z,2.88
2023-02-21T08:18:25.262Z,3.13
2023-02-21T08:20:52.856Z,3.15
2023-02-21T08:23:20.058Z,3.47
2023-02-21T08:25:47.816Z,2.95
2023-02-21T08:28:15.454Z,3.53
2023-02-21T08:30:42.598Z,3.83
2023-02-21T08:33:09.725Z,3.47
2023-02-21T08:35:36.800Z,3.55
2023-02-21T08:38:04.951Z,4.05
2023-02-21T08:40:32.332Z,3.80
2023-02-21T08:43:00.329Z,3.10
2023-02-21T08:45:28.775Z,3.55
2023-02-21T08:47:56.005Z,3.20
2023-02-21T08:50:24.477Z,3.03
2023-02-21T08:52:51.589Z,3.30
2023-02-21T08:55:19.626Z,2.60
2023-02-21T08:57:48.791Z,2.92
2023-02-21T09:00:16.309Z,3.28
2023-02-21T09:02:43.341Z,3.40
2023-02-21T09:05:21.244Z,2.92
2023-02-21T09:07:54.946Z,3.33
2023-02-21T09:10:22.321Z,3.05
2023-02-21T09:12:49.353Z,3.00
2023-02-21T09:15:16.831Z,3.05
2023-02-21T09:17:44.018Z,2.92
2023-02-21T09:20:11.792Z,2.90
2023-02-21T09:22:38.994Z,3.03
2023-02-21T09:25:07.524Z,3.15
2023-02-21T09:27:37.571Z,2.92
2023-02-21T09:30:06.454Z,2.38
2023-02-21T09:32:33.631Z,2.30
2023-02-21T09:35:00.776Z,2.72
2023-02-21T09:37:27.897Z,2.75
2023-02-21T09:39:55.011Z,3.05
2023-02-21T09:42:24.921Z,2.03
2023-02-21T09:44:52.390Z,2.63
2023-02-21T09:47:28.606Z,2.47
2023-02-21T09:50:01.120Z,2.38
2023-02-21T09:52:32.135Z,2.75
2023-02-21T09:55:00.814Z,2.38
2023-02-21T09:57:27.841Z,2.33
2023-02-21T09:59:54.967Z,2.38
2023-02-21T10:02:28.095Z,2.40
2023-02-21T10:05:01.811Z,2.13
2023-02-21T10:07:28.833Z,2.50
2023-02-21T10:10:14.410Z,2.28
2023-02-21T10:12:45.682Z,2.08
2023-02-21T10:15:37.063Z,2.10
2023-02-21T10:18:04.053Z,2.45
2023-02-21T10:20:37.857Z,2.15
2023-02-21T10:23:06.519Z,1.88
2023-02-21T10:25:36.816Z,1.77
2023-02-21T10:28:03.825Z,2.15
2023-02-21T10:30:36.402Z,1.48
2023-02-21T10:33:07.474Z,1.77
2023-02-21T10:35:35.361Z,1.52
2023-02-21T10:38:06.845Z,1.65
2023-02-21T10:40:38.525Z,1.75
2023-02-21T10:43:17.860Z,1.80
2023-02-21T10:45:47.669Z,2.22
2023-02-21T10:48:15.053Z,2.08
2023-02-21T10:50:50.677Z,2.05
2023-02-21T10:53:28.608Z,1.85
2023-02-21T10:56:14.548Z,1.85
2023-02-21T10:58:46.099Z,1.70
2023-02-21T11:01:15.167Z,1.80
2023-02-21T11:03:52.860Z,2.10
2023-02-21T11:06:27.725Z,2.08
2023-02-21T11:08:55.058Z,1.95
2023-02-21T11:11:36.774Z,1.60
2023-02-21T11:14:13.280Z,1.92
2023-02-21T11:16:40.323Z,1.83
2023-02-21T11:19:08.170Z,1.70
2023-02-21T11:21:35.355Z,1.60
2023-02-21T11:24:03.895Z,1.77
2023-02-21T11:26:32.752Z,1.63
2023-02-21T11:29:09.052Z,1.40
2023-02-21T11:31:36.370Z,1.98
2023-02-21T11:34:05.112Z,1.60
2023-02-21T11:36:34.009Z,1.58
2023-02-21T11:39:23.349Z,2.03
2023-02-21T11:41:54.407Z,1.85
2023-02-21T11:44:29.430Z,1.63
2023-02-21T11:47:02.225Z,1.73
2023-02-21T11:49:44.293Z,1.60
2023-02-21T11:52:15.068Z,1.70
2023-02-21T11:54:42.458Z,1.88
2023-02-21T11:57:28.460Z,1.50
2023-02-21T12:00:23.140Z,1.60
2023-02-21T12:02:50.218Z,1.55
2023-02-21T12:05:42.661Z,1.90
2023-02-21T12:08:09.765Z,1.67
2023-02-21T12:10:42.765Z,2.00
2023-02-21T12:13:09.758Z,1.98
2023-02-21T12:15:54.908Z,1.70
2023-02-21T12:18:28.536Z,1.85
2023-02-21T12:21:04.660Z,1.42
2023-02-21T12:23:31.631Z,1.67
2023-02-21T12:26:01.781Z,1.65
2023-02-21T12:28:40.650Z,1.50
2023-02-21T12:31:26.126Z,1.95
2023-02-21T12:33:53.458Z,1.75
2023-02-21T12:36:29.240Z,1.83
2023-02-21T12:39:17.163Z,1.30
2023-02-21T12:41:50.853Z,1.27
2023-02-21T12:44:23.599Z,1.77
2023-02-21T12:46:53.827Z,1.75
2023-02-21T12:49:43.014Z,2.03
2023-02-21T12:52:11.062Z,2.03
2023-02-21T12:57:10.483Z,1.85
2023-02-21T12:59:50.531Z,1.92
2023-02-21T13:02:26.150Z,1.85
2023-02-21T13:04:58.668Z,1.30
2023-02-21T13:07:48.882Z,1.73
2023-02-21T13:10:19.811Z,1.52
2023-02-21T13:13:05.712Z,1.42
2023-02-21T13:15:32.734Z,1.55
2023-02-21T13:18:08.203Z,1.67
2023-02-21T13:20:40.829Z,1.60
2023-02-21T13:23:38.787Z,2.00
2023-02-21T13:26:24.611Z,2.08
2023-02-21T13:28:55.661Z,1.10
2023-02-21T13:31:38.167Z,1.40
2023-02-21T13:34:11.392Z,1.77
2023-02-21T13:36:38.442Z,0.93
2023-02-21T13:39:12.331Z,1.63
2023-02-21T13:44:08.181Z,1.40
2023-02-21T13:46:35.218Z,1.42
2023-02-21T13:49:21.206Z,1.38
2023-02-21T13:51:53.075Z,1.58
2023-02-21T13:54:24.127Z,1.63
2023-02-21T13:56:52.327Z,1.50
2023-02-21T13:59:33.130Z,1.27
2023-02-21T14:02:17.397Z,1.30
2023-02-21T14:04:53.765Z,1.40
2023-02-21T14:07:40.173Z,0.90
2023-02-21T14:10:15.496Z,1.30
2023-02-21T14:12:45.882Z,1.23
2023-02-21T14:15:13.683Z,1.33
2023-02-21T14:17:40.732Z,1.17
2023-02-21T14:20:15.642Z,1.50
2023-02-21T14:22:42.880Z,1.50
2023-02-21T14:25:15.696Z,1.20
2023-02-21T14:27:42.931Z,1.58
2023-02-21T14:30:13.088Z,1.30
2023-02-21T14:32:40.168Z,1.50
2023-02-21T14:35:25.658Z,1.33
2023-02-21T14:37:55.582Z,1.30
2023-02-21T14:40:25.757Z,1.52
2023-02-21T14:43:06.914Z,1.65
2023-02-21T14:46:00.861Z,1.10
2023-02-21T14:48:46.685Z,1.00
2023-02-21T14:51:29.048Z,1.20
2023-02-21T14:54:06.527Z,1.02
2023-02-21T14:56:52.266Z,1.60
2023-02-21T14:59:19.431Z,1.20
2023-02-21T15:01:46.501Z,0.90
2023-02-21T15:04:20.443Z,0.98
2023-02-21T15:06:56.399Z,0.95
2023-02-21T15:09:23.552Z,1.20
2023-02-21T15:11:51.241Z,1.10
2023-02-21T15:14:23.068Z,0.90
2023-02-21T15:17:01.301Z,1.60
2023-02-21T15:19:32.812Z,1.27
2023-02-21T15:22:24.978Z,1.38
2023-02-21T15:25:10.891Z,0.95
2023-02-21T15:27:40.708Z,1.30
2023-02-21T15:30:09.859Z,1.10
2023-02-21T15:32:37.034Z,0.98
2023-02-21T15:35:08.594Z,1.08
2023-02-21T15:37:37.670Z,1.00
2023-02-21T15:40:12.099Z,1.30
2023-02-21T15:42:40.725Z,0.65
2023-02-21T15:45:19.681Z,1.15
2023-02-21T15:47:47.384Z,0.93
2023-02-21T15:50:18.109Z,1.00
2023-02-21T15:52:48.660Z,0.73
2023-02-21T15:55:24.606Z,1.05
2023-02-21T15:58:07.038Z,0.80
2023-02-21T16:00:38.010Z,1.20
2023-02-21T16:03:24.089Z,0.90
2023-02-21T16:05:51.377Z,1.05
2023-02-21T16:08:18.475Z,1.33
2023-02-21T16:10:46.167Z,1.33
2023-02-21T16:13:14.636Z,0.82
2023-02-21T16:15:43.359Z,1.30
2023-02-21T16:18:11.776Z,1.42
2023-02-21T16:20:40.140Z,1.40
2023-02-21T16:23:25.657Z,1.48
2023-02-21T16:26:15.483Z,0.98
2023-02-21T16:28:43.413Z,2.20
2023-02-21T16:31:15.998Z,2.20
2023-02-21T16:33:43.248Z,3.97
2023-02-21T16:36:17.035Z,4.95
2023-02-21T16:38:44.059Z,3.60
2023-02-21T16:41:15.666Z,3.00
2023-02-21T16:43:43.089Z,1.77
2023-02-21T16:46:10.197Z,2.10
2023-02-21T16:48:37.356Z,2.28
2023-02-21T16:51:06.063Z,2.20
2023-02-21T16:53:33.105Z,2.42
2023-02-21T16:56:01.910Z,3.00
2023-02-21T16:58:30.561Z,3.30
2023-02-21T17:00:58.618Z,4.13
2023-02-21T17:03:25.960Z,2.92
2023-02-21T17:05:53.472Z,4.03
2023-02-21T17:08:20.601Z,3.60
2023-02-21T17:10:48.012Z,3.85
2023-02-21T17:13:15.057Z,3.90
2023-02-21T17:15:42.246Z,4.13
2023-02-21T17:18:09.341Z,3.88
2023-02-21T17:20:36.408Z,3.45
2023-02-21T17:23:03.438Z,3.55
2023-02-21T17:25:30.502Z,4.82
2023-02-21T17:27:57.554Z,4.07
2023-02-21T17:30:25.831Z,3.50
2023-02-21T17:32:53.418Z,3.20
2023-02-21T17:35:22.306Z,4.65
2023-02-21T17:37:52.356Z,4.38
2023-02-21T17:40:20.501Z,4.68
2023-02-21T17:42:47.775Z,4.85
2023-02-21T17:45:18.235Z,4.80
2023-02-21T17:47:45.635Z,5.07
2023-02-21T17:50:13.796Z,6.13
2023-02-21T17:52:41.035Z,5.97
2023-02-21T17:55:08.499Z,5.53
2023-02-21T17:57:38.377Z,4.97
2023-02-21T18:00:09.529Z,5.65
2023-02-21T18:02:37.409Z,4.00
2023-02-21T18:05:04.538Z,5.43
2023-02-21T18:07:32.781Z,18.83
2023-02-21T18:10:00.700Z,11.25
2023-02-21T18:12:27.746Z,7.35
2023-02-21T18:14:54.754Z,139.88
2023-02-21T18:17:22.147Z,79.90
2023-02-21T18:19:49.249Z,23.55
2023-02-21T18:22:16.277Z,31.80
2023-02-21T18:24:43.370Z,9.40
2023-02-21T18:27:13.616Z,26.05
2023-02-21T18:29:40.702Z,6.43
2023-02-21T18:32:07.859Z,4.90
2023-02-21T18:34:34.875Z,5.35
2023-02-21T18:37:01.973Z,14.18
2023-02-21T18:39:29.094Z,9.65
2023-02-21T18:41:56.126Z,9.93
2023-02-21T18:44:23.527Z,11.45
2023-02-21T18:46:53.869Z,11.63
2023-02-21T18:49:21.811Z,10.90
2023-02-21T18:51:49.095Z,10.10
2023-02-21T18:54:16.996Z,7.97
2023-02-21T18:56:48.905Z,8.40
2023-02-21T18:59:20.119Z,7.75
2023-02-21T19:01:50.323Z,8.18
2023-02-21T19:04:17.461Z,8.27
2023-02-21T19:06:44.616Z,8.02
2023-02-21T19:09:11.949Z,7.97
2023-02-21T19:11:39.132Z,6.45
2023-02-21T19:14:06.190Z,11.18
2023-02-21T19:16:33.871Z,8.60
2023-02-21T19:19:03.299Z,6.72
2023-02-21T19:21:30.850Z,8.68
2023-02-21T19:23:58.524Z,6.88
2023-02-21T19:26:29.295Z,6.38
2023-02-21T19:28:56.572Z,6.30
2023-02-21T19:31:23.861Z,6.50
2023-02-21T19:33:51.020Z,6.75
2023-02-21T19:36:18.107Z,6.00
2023-02-21T19:38:45.241Z,5.75
2023-02-21T19:41:12.469Z,5.65
2023-02-21T19:43:39.626Z,5.43
2023-02-21T19:46:06.849Z,5.50
2023-02-21T19:48:33.981Z,4.93
2023-02-21T19:51:01.163Z,6.95
2023-02-21T19:53:28.167Z,4.80
2023-02-21T19:55:55.276Z,5.82
2023-02-21T19:58:22.470Z,5.22
2023-02-21T20:00:50.564Z,5.88
2023-02-21T20:03:17.666Z,6.38
2023-02-21T20:05:44.820Z,6.75
2023-02-21T20:08:11.882Z,6.88
2023-02-21T20:10:38.987Z,6.70
2023-02-21T20:13:07.437Z,6.65
2023-02-21T20:15:35.728Z,6.78
2023-02-21T20:18:03.513Z,4.88
2023-02-21T20:20:30.656Z,5.95
2023-02-21T20:22:58.195Z,5.90
2023-02-21T20:25:25.548Z,5.10
2023-02-21T20:27:52.652Z,6.10
2023-02-21T20:30:19.853Z,5.68
2023-02-21T20:32:47.028Z,6.82
2023-02-21T20:35:14.124Z,6.15
2023-02-21T20:37:41.262Z,6.00
2023-02-21T20:40:10.924Z,6.93
2023-02-21T20:42:38.183Z,6.07
2023-02-21T20:45:05.576Z,5.85
2023-02-21T20:47:32.646Z,6.22
2023-02-21T20:49:59.784Z,6.07
2023-02-21T20:52:26.794Z,7.38
2023-02-21T20:54:53.836Z,6.65
2023-02-21T20:57:20.934Z,6.72
2023-02-21T20:59:48.051Z,8.55
2023-02-21T21:02:15.115Z,8.45
2023-02-21T21:04:43.373Z,10.63
2023-02-21T21:07:16.077Z,20.80
2023-02-21T21:09:44.426Z,25.80
2023-02-21T21:12:13.041Z,21.02
2023-02-21T21:14:42.829Z,19.67
2023-02-21T21:17:12.694Z,20.75
2023-02-21T21:19:42.240Z,20.40
2023-02-21T21:22:10.689Z,19.08
2023-02-21T21:24:37.847Z,19.48
2023-02-21T21:27:08.777Z,17.10
2023-02-21T21:29:42.185Z,17.85
2023-02-21T21:32:09.735Z,19.33
2023-02-21T21:34:38.902Z,18.80
2023-02-21T21:37:06.323Z,17.70
2023-02-21T21:39:35.325Z,20.08
2023-02-21T21:42:05.596Z,17.92
2023-02-21T21:44:33.370Z,15.10
2023-02-21T21:47:00.961Z,16.50
2023-02-21T21:49:30.391Z,16.98
2023-02-21T21:51:57.805Z,17.13
2023-02-21T21:54:25.971Z,16.20
2023-02-21T21:56:54.276Z,15.80
2023-02-21T21:59:23.803Z,13.75
2023-02-21T22:01:51.791Z,10.07
2023-02-21T22:04:19.129Z,10.43
2023-02-21T22:06:46.819Z,9.88
2023-02-21T22:09:17.453Z,11.25
2023-02-21T22:11:45.434Z,12.50
2023-02-21T22:14:13.234Z,12.52
2023-02-21T22:16:41.689Z,12.48
2023-02-21T22:19:09.185Z,12.38
2023-02-21T22:21:36.500Z,10.75
2023-02-21T22:24:04.319Z,11.38
2023-02-21T22:26:32.031Z,9.18
2023-02-21T22:28:59.255Z,9.95
2023-02-21T22:31:27.181Z,10.55
2023-02-21T22:33:59.086Z,9.95
2023-02-21T22:36:26.637Z,10.02
2023-02-21T22:38:54.891Z,9.68
2023-02-21T22:41:26.318Z,9.63
2023-02-21T22:43:54.419Z,10.15
2023-02-21T22:46:23.190Z,11.68
2023-02-21T22:48:50.376Z,10.05
2023-02-21T22:51:18.419Z,9.95
2023-02-21T22:53:50.197Z,10.63
2023-02-21T22:56:23.469Z,10.50
2023-02-21T22:58:50.972Z,11.57
2023-02-21T23:01:20.849Z,9.60
2023-02-21T23:03:48.524Z,9.77
2023-02-21T23:06:15.623Z,9.57
2023-02-21T23:08:47.243Z,9.73
2023-02-21T23:11:21.337Z,10.45
2023-02-21T23:13:48.381Z,10.85
2023-02-21T23:16:19.755Z,9.88
2023-02-21T23:18:48.129Z,10.68
2023-02-21T23:21:22.713Z,9.40
2023-02-21T23:23:50.358Z,10.15
2023-02-21T23:26:20.808Z,10.90
2023-02-21T23:28:49.271Z,9.07
2023-02-21T23:31:18.579Z,10.18
2023-02-21T23:33:48.686Z,10.57
2023-02-21T23:36:22.386Z,9.68
2023-02-21T23:38:50.638Z,11.18
2023-02-21T23:41:18.317Z,11.40
2023-02-21T23:43:51.240Z,11.45
2023-02-21T23:46:20.098Z,10.40
2023-02-21T23:48:47.215Z,11.80
2023-02-21T23:51:14.751Z,11.07
2023-02-21T23:53:42.220Z,11.13
2023-02-21T23:56:12.916Z,10.95
2023-02-21T23:58:44.210Z,12.20
